Main page
METAR-TAF:

METAR-TAF

Airports :

Avignon, France

Avignon – Provence Airport

latitude: 43-54-26N, longitude: 004-54-07E, elevation: 38 m

Current weather observation

The report was made 10 minutes ago, at 02:00 UTC
Wind 3 kt from the Southeast
Temperature 13°C
Humidity 77%
Pressure 1018 hPa
Visibility 10 km or more
no clouds below 1500 m and no cumulonimbus

METAR: LFMV 290200Z AUTO 14003KT CAVOK 13/09 Q1018

Time: 04:10 (02:10 UTC)

Forecast

The report was made 12 hours and 10 minutes ago, at 14:00 UTC
Forecast valid from 28 at 15 UTC to 29 at 15 UTC
Wind 10 kt from the South/Southwest
Visibility 10 km or more
no clouds below 1500 m and no cumulonimbus
Becoming
from 28 at 15 UTC to 28 at 18 UTC
Wind 5 kt from variable directions
Becoming
from 29 at 09 UTC to 29 at 12 UTC
Wind 10 kt from the South/Southwest

TAF: LFMV 281400Z 2815/2915 20010KT CAVOK BECMG 2815/2818 VRB05KT BECMG 2909/2912 20010KT

Weather observations and forecasts of more than 4000 airports (METAR and TAF reports).

The available stations are represented by yellow and red dots on the map.

Hover mouse over dot to see the name of the station.

Then click to see weather observations and forecasts.

To change the map : click on the green buttons with a black cross to zoom in, on the green button with a dash to zoom out, or on the green arrows for adjacent maps.


METAR-TAF: